sensor_id;sensor_type;location;lat;lon;timestamp;P1;durP1;ratioP1;P2;durP2;ratioP2
65543;SDS011;52173;45.204;39.240;2023-07-24T05:05:08;12.43;;;7.60;;
65543;SDS011;52173;45.204;39.240;2023-07-24T05:07:34;9.52;;;7.72;;
65543;SDS011;52173;45.204;39.240;2023-07-24T05:10:00;10.32;;;7.90;;
65543;SDS011;52173;45.204;39.240;2023-07-24T05:12:26;11.85;;;7.43;;
65543;SDS011;52173;45.204;39.240;2023-07-24T05:14:52;7.85;;;7.00;;
65543;SDS011;52173;45.204;39.240;2023-07-24T05:17:17;11.55;;;7.57;;
65543;SDS011;52173;45.204;39.240;2023-07-24T05:19:43;10.18;;;7.45;;
65543;SDS011;52173;45.204;39.240;2023-07-24T05:22:09;11.85;;;8.93;;
65543;SDS011;52173;45.204;39.240;2023-07-24T05:24:36;10.05;;;7.25;;
65543;SDS011;52173;45.204;39.240;2023-07-24T05:27:02;12.20;;;7.95;;
65543;SDS011;52173;45.204;39.240;2023-07-24T05:29:28;13.43;;;7.80;;
65543;SDS011;52173;45.204;39.240;2023-07-24T05:31:55;17.00;;;9.63;;
65543;SDS011;52173;45.204;39.240;2023-07-24T05:34:21;14.70;;;9.30;;
65543;SDS011;52173;45.204;39.240;2023-07-24T05:36:47;24.38;;;7.70;;
65543;SDS011;52173;45.204;39.240;2023-07-24T05:39:15;12.18;;;9.13;;
65543;SDS011;52173;45.204;39.240;2023-07-24T05:41:43;10.98;;;7.50;;
65543;SDS011;52173;45.204;39.240;2023-07-24T05:44:11;11.10;;;7.10;;
65543;SDS011;52173;45.204;39.240;2023-07-24T05:46:37;15.50;;;7.38;;
65543;SDS011;52173;45.204;39.240;2023-07-24T05:49:04;8.98;;;6.60;;
65543;SDS011;52173;45.204;39.240;2023-07-24T05:51:29;8.23;;;5.97;;
65543;SDS011;52173;45.204;39.240;2023-07-24T05:53:55;11.27;;;6.32;;
65543;SDS011;52173;45.204;39.240;2023-07-24T05:56:21;9.45;;;6.47;;
65543;SDS011;52173;45.204;39.240;2023-07-24T06:01:17;10.98;;;7.40;;
65543;SDS011;52173;45.204;39.240;2023-07-24T06:03:42;8.60;;;6.18;;
65543;SDS011;52173;45.204;39.240;2023-07-24T06:06:08;9.60;;;6.25;;
65543;SDS011;52173;45.204;39.240;2023-07-24T06:08:34;9.73;;;6.03;;
65543;SDS011;52173;45.204;39.240;2023-07-24T06:11:00;7.53;;;5.97;;
65543;SDS011;52173;45.204;39.240;2023-07-24T06:18:26;12.35;;;7.20;;
65543;SDS011;52173;45.204;39.240;2023-07-24T06:21:04;8.73;;;6.40;;
65543;SDS011;52173;45.204;39.240;2023-07-24T06:23:32;11.10;;;6.65;;
65543;SDS011;52173;45.204;39.240;2023-07-24T06:25:59;9.63;;;6.57;;
65543;SDS011;52173;45.204;39.240;2023-07-24T06:28:25;9.88;;;6.90;;
65543;SDS011;52173;45.204;39.240;2023-07-24T06:33:33;10.35;;;6.07;;
65543;SDS011;52173;45.204;39.240;2023-07-24T06:38:58;10.45;;;6.03;;
65543;SDS011;52173;45.204;39.240;2023-07-24T06:41:24;9.70;;;6.00;;
65543;SDS011;52173;45.204;39.240;2023-07-24T06:43:52;10.35;;;6.20;;
65543;SDS011;52173;45.204;39.240;2023-07-24T06:46:23;9.52;;;6.43;;
65543;SDS011;52173;45.204;39.240;2023-07-24T06:48:49;9.13;;;6.18;;
65543;SDS011;52173;45.204;39.240;2023-07-24T06:53:58;9.20;;;6.43;;
65543;SDS011;52173;45.204;39.240;2023-07-24T06:59:01;10.75;;;6.22;;
65543;SDS011;52173;45.204;39.240;2023-07-24T07:01:33;9.93;;;6.38;;
65543;SDS011;52173;45.204;39.240;2023-07-24T07:09:01;11.23;;;6.13;;
65543;SDS011;52173;45.204;39.240;2023-07-24T07:11:33;8.25;;;6.50;;
65543;SDS011;52173;45.204;39.240;2023-07-24T07:14:03;9.75;;;6.65;;
65543;SDS011;52173;45.204;39.240;2023-07-24T07:19:08;8.88;;;6.38;;
65543;SDS011;52173;45.204;39.240;2023-07-24T07:30:24;12.07;;;6.55;;
65543;SDS011;52173;45.204;39.240;2023-07-24T07:32:57;9.38;;;6.68;;
65543;SDS011;52173;45.204;39.240;2023-07-24T07:35:23;13.70;;;6.63;;
65543;SDS011;52173;45.204;39.240;2023-07-24T07:37:49;18.00;;;5.97;;
65543;SDS011;52173;45.204;39.240;2023-07-24T07:40:19;8.13;;;6.25;;
65543;SDS011;52173;45.204;39.240;2023-07-24T07:42:47;9.77;;;7.13;;
65543;SDS011;52173;45.204;39.240;2023-07-24T07:45:13;10.85;;;6.72;;
65543;SDS011;52173;45.204;39.240;2023-07-24T07:47:39;10.20;;;6.43;;
65543;SDS011;52173;45.204;39.240;2023-07-24T07:50:12;10.75;;;6.40;;
65543;SDS011;52173;45.204;39.240;2023-07-24T08:00:32;8.73;;;6.40;;
65543;SDS011;52173;45.204;39.240;2023-07-24T08:02:58;10.60;;;6.25;;
65543;SDS011;52173;45.204;39.240;2023-07-24T08:05:24;8.38;;;6.38;;
65543;SDS011;52173;45.204;39.240;2023-07-24T08:07:51;11.77;;;6.20;;
65543;SDS011;52173;45.204;39.240;2023-07-24T08:10:17;7.57;;;5.63;;
65543;SDS011;52173;45.204;39.240;2023-07-24T08:12:43;9.45;;;6.20;;
65543;SDS011;52173;45.204;39.240;2023-07-24T08:15:09;9.00;;;6.10;;
65543;SDS011;52173;45.204;39.240;2023-07-24T08:17:35;10.85;;;5.97;;
65543;SDS011;52173;45.204;39.240;2023-07-24T08:22:50;8.98;;;5.68;;
65543;SDS011;52173;45.204;39.240;2023-07-24T08:25:16;10.43;;;5.60;;
65543;SDS011;52173;45.204;39.240;2023-07-24T08:27:42;6.28;;;5.53;;
65543;SDS011;52173;45.204;39.240;2023-07-24T08:30:08;10.95;;;5.93;;
65543;SDS011;52173;45.204;39.240;2023-07-24T08:32:35;9.13;;;6.00;;
65543;SDS011;52173;45.204;39.240;2023-07-24T08:35:01;9.05;;;5.75;;
65543;SDS011;52173;45.204;39.240;2023-07-24T08:37:27;6.18;;;5.45;;
65543;SDS011;52173;45.204;39.240;2023-07-24T08:39:53;19.30;;;5.80;;
65543;SDS011;52173;45.204;39.240;2023-07-24T08:42:18;11.40;;;5.35;;
65543;SDS011;52173;45.204;39.240;2023-07-24T08:44:45;8.52;;;5.57;;
65543;SDS011;52173;45.204;39.240;2023-07-24T08:47:11;9.02;;;5.55;;
65543;SDS011;52173;45.204;39.240;2023-07-24T08:49:38;10.30;;;5.57;;
65543;SDS011;52173;45.204;39.240;2023-07-24T08:52:05;8.18;;;5.25;;
65543;SDS011;52173;45.204;39.240;2023-07-24T08:54:32;7.78;;;5.00;;
65543;SDS011;52173;45.204;39.240;2023-07-24T08:57:01;9.48;;;5.13;;
65543;SDS011;52173;45.204;39.240;2023-07-24T08:59:27;7.60;;;5.38;;
65543;SDS011;52173;45.204;39.240;2023-07-24T09:01:55;9.30;;;5.40;;
65543;SDS011;52173;45.204;39.240;2023-07-24T09:04:21;7.28;;;5.10;;
65543;SDS011;52173;45.204;39.240;2023-07-24T09:06:46;8.13;;;5.35;;
65543;SDS011;52173;45.204;39.240;2023-07-24T09:09:19;7.32;;;5.07;;
65543;SDS011;52173;45.204;39.240;2023-07-24T09:12:36;8.77;;;5.18;;
65543;SDS011;52173;45.204;39.240;2023-07-24T09:15:03;8.40;;;5.10;;
65543;SDS011;52173;45.204;39.240;2023-07-24T09:17:29;8.57;;;5.00;;
65543;SDS011;52173;45.204;39.240;2023-07-24T09:19:57;11.07;;;5.30;;
65543;SDS011;52173;45.204;39.240;2023-07-24T09:22:23;8.50;;;5.00;;
65543;SDS011;52173;45.204;39.240;2023-07-24T09:24:53;7.72;;;5.00;;
65543;SDS011;52173;45.204;39.240;2023-07-24T09:27:19;8.73;;;5.40;;
65543;SDS011;52173;45.204;39.240;2023-07-24T09:29:45;8.70;;;5.15;;
65543;SDS011;52173;45.204;39.240;2023-07-24T09:32:24;15.05;;;5.72;;
65543;SDS011;52173;45.204;39.240;2023-07-24T09:34:50;7.07;;;5.57;;
65543;SDS011;52173;45.204;39.240;2023-07-24T09:37:24;6.82;;;5.05;;
65543;SDS011;52173;45.204;39.240;2023-07-24T09:39:51;7.00;;;4.93;;
65543;SDS011;52173;45.204;39.240;2023-07-24T09:42:17;10.55;;;5.78;;
65543;SDS011;52173;45.204;39.240;2023-07-24T09:44:43;8.45;;;5.50;;
65543;SDS011;52173;45.204;39.240;2023-07-24T09:47:08;9.60;;;5.95;;
65543;SDS011;52173;45.204;39.240;2023-07-24T09:49:35;10.80;;;5.50;;
65543;SDS011;52173;45.204;39.240;2023-07-24T09:52:03;10.35;;;5.25;;
65543;SDS011;52173;45.204;39.240;2023-07-24T09:54:32;8.48;;;5.55;;
65543;SDS011;52173;45.204;39.240;2023-07-24T09:56:58;6.35;;;4.90;;
65543;SDS011;52173;45.204;39.240;2023-07-24T09:59:25;10.75;;;6.00;;
65543;SDS011;52173;45.204;39.240;2023-07-24T10:01:52;7.50;;;5.60;;
65543;SDS011;52173;45.204;39.240;2023-07-24T10:04:18;7.40;;;5.80;;
65543;SDS011;52173;45.204;39.240;2023-07-24T10:06:45;10.75;;;5.88;;
65543;SDS011;52173;45.204;39.240;2023-07-24T10:09:11;6.90;;;5.15;;
65543;SDS011;52173;45.204;39.240;2023-07-24T10:11:38;7.30;;;5.47;;
65543;SDS011;52173;45.204;39.240;2023-07-24T10:14:04;65.47;;;8.68;;
65543;SDS011;52173;45.204;39.240;2023-07-24T10:16:30;8.82;;;5.15;;
65543;SDS011;52173;45.204;39.240;2023-07-24T10:18:56;8.85;;;5.40;;
65543;SDS011;52173;45.204;39.240;2023-07-24T10:21:28;9.88;;;5.20;;
65543;SDS011;52173;45.204;39.240;2023-07-24T10:23:54;9.13;;;4.85;;
65543;SDS011;52173;45.204;39.240;2023-07-24T10:26:26;7.45;;;5.30;;
65543;SDS011;52173;45.204;39.240;2023-07-24T10:28:52;6.30;;;5.07;;
65543;SDS011;52173;45.204;39.240;2023-07-24T10:31:21;7.25;;;5.40;;
65543;SDS011;52173;45.204;39.240;2023-07-24T10:33:48;8.38;;;5.13;;
65543;SDS011;52173;45.204;39.240;2023-07-24T10:36:16;9.77;;;5.57;;
65543;SDS011;52173;45.204;39.240;2023-07-24T10:38:46;6.05;;;4.60;;
65543;SDS011;52173;45.204;39.240;2023-07-24T10:41:12;9.35;;;5.57;;
65543;SDS011;52173;45.204;39.240;2023-07-24T10:46:13;8.50;;;4.50;;
65543;SDS011;52173;45.204;39.240;2023-07-24T10:48:43;8.55;;;5.00;;
65543;SDS011;52173;45.204;39.240;2023-07-24T10:51:10;6.47;;;4.90;;
65543;SDS011;52173;45.204;39.240;2023-07-24T10:53:40;7.80;;;5.20;;
65543;SDS011;52173;45.204;39.240;2023-07-24T10:56:07;7.00;;;5.00;;
65543;SDS011;52173;45.204;39.240;2023-07-24T10:58:34;7.10;;;4.75;;
65543;SDS011;52173;45.204;39.240;2023-07-24T11:01:03;8.60;;;5.00;;
65543;SDS011;52173;45.204;39.240;2023-07-24T11:03:30;9.70;;;4.78;;
65543;SDS011;52173;45.204;39.240;2023-07-24T11:05:57;7.75;;;4.53;;
65543;SDS011;52173;45.204;39.240;2023-07-24T11:08:23;7.60;;;4.90;;
65543;SDS011;52173;45.204;39.240;2023-07-24T11:10:51;8.05;;;4.90;;
65543;SDS011;52173;45.204;39.240;2023-07-24T11:13:18;8.32;;;5.10;;
65543;SDS011;52173;45.204;39.240;2023-07-24T11:15:44;10.85;;;4.85;;
65543;SDS011;52173;45.204;39.240;2023-07-24T11:18:10;8.50;;;4.80;;
65543;SDS011;52173;45.204;39.240;2023-07-24T11:20:51;8.43;;;4.72;;
65543;SDS011;52173;45.204;39.240;2023-07-24T11:23:17;9.50;;;5.10;;
65543;SDS011;52173;45.204;39.240;2023-07-24T11:25:52;7.88;;;5.00;;
65543;SDS011;52173;45.204;39.240;2023-07-24T11:28:19;6.95;;;4.85;;
65543;SDS011;52173;45.204;39.240;2023-07-24T11:30:45;8.48;;;4.80;;
65543;SDS011;52173;45.204;39.240;2023-07-24T11:33:11;8.35;;;5.30;;
65543;SDS011;52173;45.204;39.240;2023-07-24T11:35:37;9.43;;;5.15;;
65543;SDS011;52173;45.204;39.240;2023-07-24T11:38:10;14.60;;;6.53;;
65543;SDS011;52173;45.204;39.240;2023-07-24T11:43:01;12.45;;;5.05;;
65543;SDS011;52173;45.204;39.240;2023-07-24T11:45:27;8.88;;;5.20;;
65543;SDS011;52173;45.204;39.240;2023-07-24T11:47:54;6.93;;;5.03;;
65543;SDS011;52173;45.204;39.240;2023-07-24T11:50:21;16.08;;;5.07;;
65543;SDS011;52173;45.204;39.240;2023-07-24T11:52:48;6.78;;;5.07;;
65543;SDS011;52173;45.204;39.240;2023-07-24T11:55:18;8.95;;;5.10;;
65543;SDS011;52173;45.204;39.240;2023-07-24T11:57:57;6.97;;;4.82;;
65543;SDS011;52173;45.204;39.240;2023-07-24T12:00:24;8.65;;;4.95;;
65543;SDS011;52173;45.204;39.240;2023-07-24T12:02:50;10.45;;;5.22;;
65543;SDS011;52173;45.204;39.240;2023-07-24T12:05:16;7.20;;;5.03;;
65543;SDS011;52173;45.204;39.240;2023-07-24T12:07:42;7.93;;;5.18;;
65543;SDS011;52173;45.204;39.240;2023-07-24T12:10:09;8.07;;;4.97;;
65543;SDS011;52173;45.204;39.240;2023-07-24T12:15:04;9.02;;;6.10;;
65543;SDS011;52173;45.204;39.240;2023-07-24T12:17:33;10.30;;;5.80;;
65543;SDS011;52173;45.204;39.240;2023-07-24T12:19:59;8.50;;;5.50;;
65543;SDS011;52173;45.204;39.240;2023-07-24T12:22:24;8.88;;;5.50;;
65543;SDS011;52173;45.204;39.240;2023-07-24T12:24:50;6.80;;;4.72;;
65543;SDS011;52173;45.204;39.240;2023-07-24T12:27:23;13.80;;;5.47;;
65543;SDS011;52173;45.204;39.240;2023-07-24T12:29:51;15.18;;;5.10;;
65543;SDS011;52173;45.204;39.240;2023-07-24T12:32:16;8.40;;;5.45;;
65543;SDS011;52173;45.204;39.240;2023-07-24T12:34:48;8.70;;;5.50;;
65543;SDS011;52173;45.204;39.240;2023-07-24T12:37:14;9.10;;;5.20;;
65543;SDS011;52173;45.204;39.240;2023-07-24T12:39:40;9.27;;;5.40;;
65543;SDS011;52173;45.204;39.240;2023-07-24T12:42:06;13.65;;;5.68;;
65543;SDS011;52173;45.204;39.240;2023-07-24T12:44:32;11.93;;;6.05;;
65543;SDS011;52173;45.204;39.240;2023-07-24T12:46:58;9.02;;;5.43;;
65543;SDS011;52173;45.204;39.240;2023-07-24T12:49:25;9.75;;;5.35;;
65543;SDS011;52173;45.204;39.240;2023-07-24T12:51:51;8.98;;;5.18;;
65543;SDS011;52173;45.204;39.240;2023-07-24T12:54:18;9.05;;;5.65;;
65543;SDS011;52173;45.204;39.240;2023-07-24T12:56:47;15.27;;;5.82;;
65543;SDS011;52173;45.204;39.240;2023-07-24T12:59:13;7.13;;;4.85;;
65543;SDS011;52173;45.204;39.240;2023-07-24T13:01:39;11.23;;;5.03;;
65543;SDS011;52173;45.204;39.240;2023-07-24T13:04:04;12.10;;;5.53;;
65543;SDS011;52173;45.204;39.240;2023-07-24T13:06:30;9.48;;;4.97;;
65543;SDS011;52173;45.204;39.240;2023-07-24T13:08:56;15.13;;;5.10;;
65543;SDS011;52173;45.204;39.240;2023-07-24T13:11:22;14.43;;;5.47;;
65543;SDS011;52173;45.204;39.240;2023-07-24T13:13:50;9.35;;;5.40;;
65543;SDS011;52173;45.204;39.240;2023-07-24T13:16:16;14.50;;;4.95;;
65543;SDS011;52173;45.204;39.240;2023-07-24T13:18:42;8.77;;;4.78;;
65543;SDS011;52173;45.204;39.240;2023-07-24T13:21:08;9.32;;;5.05;;
65543;SDS011;52173;45.204;39.240;2023-07-24T13:23:34;10.88;;;5.18;;
65543;SDS011;52173;45.204;39.240;2023-07-24T13:26:00;11.70;;;5.00;;
65543;SDS011;52173;45.204;39.240;2023-07-24T13:28:25;8.82;;;5.07;;
65543;SDS011;52173;45.204;39.240;2023-07-24T13:30:51;10.73;;;4.82;;
65543;SDS011;52173;45.204;39.240;2023-07-24T13:33:17;9.20;;;5.18;;
65543;SDS011;52173;45.204;39.240;2023-07-24T13:35:44;13.05;;;4.97;;
65543;SDS011;52173;45.204;39.240;2023-07-24T13:38:10;9.05;;;5.03;;
65543;SDS011;52173;45.204;39.240;2023-07-24T13:40:40;11.23;;;5.22;;
65543;SDS011;52173;45.204;39.240;2023-07-24T13:43:07;13.70;;;4.97;;
65543;SDS011;52173;45.204;39.240;2023-07-24T13:45:34;7.82;;;5.22;;
65543;SDS011;52173;45.204;39.240;2023-07-24T13:47:59;10.43;;;5.18;;
65543;SDS011;52173;45.204;39.240;2023-07-24T13:50:25;9.35;;;4.85;;
65543;SDS011;52173;45.204;39.240;2023-07-24T13:52:51;11.50;;;6.00;;
65543;SDS011;52173;45.204;39.240;2023-07-24T13:55:17;7.85;;;4.88;;
65543;SDS011;52173;45.204;39.240;2023-07-24T13:57:45;10.57;;;5.32;;
65543;SDS011;52173;45.204;39.240;2023-07-24T14:00:10;6.63;;;5.35;;
65543;SDS011;52173;45.204;39.240;2023-07-24T14:02:40;10.95;;;4.97;;
65543;SDS011;52173;45.204;39.240;2023-07-24T14:05:06;10.73;;;5.30;;
65543;SDS011;52173;45.204;39.240;2023-07-24T14:07:32;16.67;;;5.55;;
65543;SDS011;52173;45.204;39.240;2023-07-24T14:09:58;11.05;;;5.43;;
65543;SDS011;52173;45.204;39.240;2023-07-24T14:12:24;14.20;;;5.47;;
65543;SDS011;52173;45.204;39.240;2023-07-24T14:14:49;11.75;;;5.93;;
65543;SDS011;52173;45.204;39.240;2023-07-24T14:17:15;15.82;;;5.57;;
65543;SDS011;52173;45.204;39.240;2023-07-24T14:19:41;12.32;;;5.13;;
65543;SDS011;52173;45.204;39.240;2023-07-24T14:22:07;9.38;;;5.45;;
65543;SDS011;52173;45.204;39.240;2023-07-24T14:24:32;7.15;;;5.35;;
65543;SDS011;52173;45.204;39.240;2023-07-24T14:26:59;14.23;;;5.22;;
65543;SDS011;52173;45.204;39.240;2023-07-24T14:29:26;9.05;;;5.13;;
65543;SDS011;52173;45.204;39.240;2023-07-24T14:31:53;9.23;;;5.53;;
65543;SDS011;52173;45.204;39.240;2023-07-24T14:34:25;14.80;;;5.28;;
65543;SDS011;52173;45.204;39.240;2023-07-24T14:36:57;8.50;;;5.75;;
65543;SDS011;52173;45.204;39.240;2023-07-24T14:39:25;36.38;;;10.05;;
65543;SDS011;52173;45.204;39.240;2023-07-24T14:50:02;7.65;;;5.13;;
65543;SDS011;52173;45.204;39.240;2023-07-24T14:52:29;9.52;;;5.65;;
65543;SDS011;52173;45.204;39.240;2023-07-24T14:54:55;7.97;;;5.00;;
65543;SDS011;52173;45.204;39.240;2023-07-24T14:57:21;8.55;;;5.20;;
65543;SDS011;52173;45.204;39.240;2023-07-24T14:59:48;9.15;;;4.90;;
65543;SDS011;52173;45.204;39.240;2023-07-24T15:02:13;8.73;;;5.20;;
65543;SDS011;52173;45.204;39.240;2023-07-24T15:07:08;12.85;;;5.40;;
65543;SDS011;52173;45.204;39.240;2023-07-24T15:09:34;13.55;;;6.03;;
65543;SDS011;52173;45.204;39.240;2023-07-24T15:12:00;9.50;;;5.85;;
65543;SDS011;52173;45.204;39.240;2023-07-24T15:14:26;11.50;;;5.70;;
65543;SDS011;52173;45.204;39.240;2023-07-24T15:16:51;10.82;;;5.80;;
65543;SDS011;52173;45.204;39.240;2023-07-24T15:19:17;13.35;;;6.90;;
65543;SDS011;52173;45.204;39.240;2023-07-24T15:21:44;12.63;;;6.20;;
65543;SDS011;52173;45.204;39.240;2023-07-24T15:24:11;9.48;;;5.80;;
65543;SDS011;52173;45.204;39.240;2023-07-24T15:26:37;9.63;;;5.85;;
65543;SDS011;52173;45.204;39.240;2023-07-24T15:29:03;11.25;;;6.10;;
65543;SDS011;52173;45.204;39.240;2023-07-24T15:31:29;15.45;;;5.88;;
65543;SDS011;52173;45.204;39.240;2023-07-24T15:34:01;9.90;;;6.22;;
65543;SDS011;52173;45.204;39.240;2023-07-24T15:36:27;12.20;;;6.35;;
65543;SDS011;52173;45.204;39.240;2023-07-24T15:38:54;8.70;;;6.38;;
65543;SDS011;52173;45.204;39.240;2023-07-24T15:41:20;10.82;;;5.72;;
65543;SDS011;52173;45.204;39.240;2023-07-24T15:43:49;10.20;;;5.70;;
65543;SDS011;52173;45.204;39.240;2023-07-24T15:46:15;7.97;;;5.68;;
65543;SDS011;52173;45.204;39.240;2023-07-24T15:48:40;11.68;;;5.60;;
65543;SDS011;52173;45.204;39.240;2023-07-24T15:51:06;10.18;;;5.90;;
65543;SDS011;52173;45.204;39.240;2023-07-24T15:53:32;9.30;;;5.95;;
65543;SDS011;52173;45.204;39.240;2023-07-24T15:55:58;7.47;;;5.65;;
65543;SDS011;52173;45.204;39.240;2023-07-24T15:58:24;10.32;;;6.22;;
65543;SDS011;52173;45.204;39.240;2023-07-24T16:00:50;13.80;;;5.97;;
65543;SDS011;52173;45.204;39.240;2023-07-24T16:03:15;15.75;;;6.40;;
65543;SDS011;52173;45.204;39.240;2023-07-24T16:05:41;10.18;;;5.55;;
65543;SDS011;52173;45.204;39.240;2023-07-24T16:08:07;7.65;;;5.90;;
65543;SDS011;52173;45.204;39.240;2023-07-24T16:10:33;9.73;;;5.88;;
65543;SDS011;52173;45.204;39.240;2023-07-24T16:12:59;8.45;;;5.43;;
65543;SDS011;52173;45.204;39.240;2023-07-24T16:15:25;9.23;;;6.40;;
65543;SDS011;52173;45.204;39.240;2023-07-24T16:17:50;9.63;;;6.22;;
65543;SDS011;52173;45.204;39.240;2023-07-24T16:20:16;7.68;;;5.95;;
65543;SDS011;52173;45.204;39.240;2023-07-24T16:22:42;10.60;;;6.38;;
65543;SDS011;52173;45.204;39.240;2023-07-24T16:25:08;10.73;;;5.88;;
65543;SDS011;52173;45.204;39.240;2023-07-24T16:27:34;10.77;;;5.95;;
65543;SDS011;52173;45.204;39.240;2023-07-24T16:29:59;10.95;;;6.47;;
65543;SDS011;52173;45.204;39.240;2023-07-24T16:32:26;8.57;;;6.05;;
65543;SDS011;52173;45.204;39.240;2023-07-24T16:34:52;7.80;;;6.40;;
65543;SDS011;52173;45.204;39.240;2023-07-24T16:37:18;11.65;;;5.80;;
65543;SDS011;52173;45.204;39.240;2023-07-24T16:39:44;10.43;;;6.32;;
65543;SDS011;52173;45.204;39.240;2023-07-24T16:42:09;13.57;;;6.40;;
65543;SDS011;52173;45.204;39.240;2023-07-24T16:44:35;9.80;;;6.70;;
65543;SDS011;52173;45.204;39.240;2023-07-24T16:47:01;8.70;;;7.13;;
65543;SDS011;52173;45.204;39.240;2023-07-24T16:49:27;14.38;;;6.13;;
65543;SDS011;52173;45.204;39.240;2023-07-24T16:51:53;10.55;;;6.30;;
65543;SDS011;52173;45.204;39.240;2023-07-24T16:54:19;8.80;;;6.30;;
65543;SDS011;52173;45.204;39.240;2023-07-24T16:56:45;10.15;;;6.70;;
65543;SDS011;52173;45.204;39.240;2023-07-24T16:59:11;10.57;;;6.88;;
65543;SDS011;52173;45.204;39.240;2023-07-24T17:01:37;11.15;;;7.75;;
65543;SDS011;52173;45.204;39.240;2023-07-24T17:04:02;11.68;;;7.97;;
65543;SDS011;52173;45.204;39.240;2023-07-24T17:06:28;11.65;;;7.32;;
65543;SDS011;52173;45.204;39.240;2023-07-24T17:08:54;10.75;;;6.85;;
65543;SDS011;52173;45.204;39.240;2023-07-24T17:11:20;12.18;;;7.15;;
65543;SDS011;52173;45.204;39.240;2023-07-24T17:13:46;13.68;;;7.03;;
65543;SDS011;52173;45.204;39.240;2023-07-24T17:16:12;13.77;;;7.47;;
65543;SDS011;52173;45.204;39.240;2023-07-24T17:18:38;16.60;;;7.07;;
65543;SDS011;52173;45.204;39.240;2023-07-24T17:21:04;16.08;;;7.57;;
65543;SDS011;52173;45.204;39.240;2023-07-24T17:23:30;11.60;;;6.80;;
65543;SDS011;52173;45.204;39.240;2023-07-24T17:25:56;14.15;;;6.80;;
65543;SDS011;52173;45.204;39.240;2023-07-24T17:31:01;13.55;;;7.43;;
65543;SDS011;52173;45.204;39.240;2023-07-24T17:33:27;21.45;;;8.60;;
65543;SDS011;52173;45.204;39.240;2023-07-24T17:35:53;18.50;;;12.65;;
65543;SDS011;52173;45.204;39.240;2023-07-24T17:38:19;19.30;;;13.45;;
65543;SDS011;52173;45.204;39.240;2023-07-24T17:40:48;23.92;;;14.20;;
65543;SDS011;52173;45.204;39.240;2023-07-24T17:43:15;26.65;;;14.57;;
65543;SDS011;52173;45.204;39.240;2023-07-24T17:45:41;22.38;;;13.65;;
65543;SDS011;52173;45.204;39.240;2023-07-24T17:48:07;25.25;;;14.35;;
65543;SDS011;52173;45.204;39.240;2023-07-24T17:50:32;31.02;;;14.60;;
65543;SDS011;52173;45.204;39.240;2023-07-24T17:53:00;22.25;;;14.63;;
65543;SDS011;52173;45.204;39.240;2023-07-24T17:55:25;19.08;;;11.65;;
65543;SDS011;52173;45.204;39.240;2023-07-24T17:57:53;17.00;;;10.60;;
65543;SDS011;52173;45.204;39.240;2023-07-24T18:00:19;17.98;;;9.88;;
65543;SDS011;52173;45.204;39.240;2023-07-24T18:02:48;16.88;;;10.77;;
65543;SDS011;52173;45.204;39.240;2023-07-24T18:05:14;18.60;;;9.88;;
65543;SDS011;52173;45.204;39.240;2023-07-24T18:07:40;14.02;;;9.85;;
65543;SDS011;52173;45.204;39.240;2023-07-24T18:10:06;16.77;;;10.10;;
65543;SDS011;52173;45.204;39.240;2023-07-24T18:12:32;16.17;;;10.95;;
65543;SDS011;52173;45.204;39.240;2023-07-24T18:15:03;20.58;;;10.52;;
65543;SDS011;52173;45.204;39.240;2023-07-24T18:17:35;16.45;;;11.13;;
65543;SDS011;52173;45.204;39.240;2023-07-24T18:20:01;14.65;;;10.57;;
65543;SDS011;52173;45.204;39.240;2023-07-24T18:22:27;17.45;;;10.32;;
65543;SDS011;52173;45.204;39.240;2023-07-24T18:24:54;13.45;;;9.88;;
65543;SDS011;52173;45.204;39.240;2023-07-24T18:27:20;22.10;;;10.73;;
65543;SDS011;52173;45.204;39.240;2023-07-24T18:29:46;21.27;;;11.30;;
65543;SDS011;52173;45.204;39.240;2023-07-24T18:32:12;25.85;;;11.73;;
65543;SDS011;52173;45.204;39.240;2023-07-24T18:34:38;15.38;;;11.05;;
65543;SDS011;52173;45.204;39.240;2023-07-24T18:37:04;22.13;;;12.38;;
65543;SDS011;52173;45.204;39.240;2023-07-24T18:39:30;21.98;;;12.20;;
65543;SDS011;52173;45.204;39.240;2023-07-24T18:41:56;19.10;;;11.45;;
65543;SDS011;52173;45.204;39.240;2023-07-24T18:44:22;27.83;;;14.25;;
65543;SDS011;52173;45.204;39.240;2023-07-24T18:46:49;25.45;;;12.68;;
65543;SDS011;52173;45.204;39.240;2023-07-24T18:49:14;18.95;;;12.93;;
65543;SDS011;52173;45.204;39.240;2023-07-24T18:51:40;24.50;;;12.63;;
65543;SDS011;52173;45.204;39.240;2023-07-24T18:54:06;26.55;;;13.02;;
65543;SDS011;52173;45.204;39.240;2023-07-24T18:56:32;15.73;;;10.90;;
65543;SDS011;52173;45.204;39.240;2023-07-24T18:58:58;17.35;;;11.63;;
65543;SDS011;52173;45.204;39.240;2023-07-24T19:01:24;16.95;;;11.23;;
65543;SDS011;52173;45.204;39.240;2023-07-24T19:03:50;18.98;;;10.38;;
65543;SDS011;52173;45.204;39.240;2023-07-24T19:06:17;21.98;;;10.18;;
65543;SDS011;52173;45.204;39.240;2023-07-24T19:08:46;14.82;;;10.15;;
65543;SDS011;52173;45.204;39.240;2023-07-24T19:11:13;16.58;;;10.52;;
65543;SDS011;52173;45.204;39.240;2023-07-24T19:13:39;20.83;;;10.90;;
65543;SDS011;52173;45.204;39.240;2023-07-24T19:16:05;21.25;;;10.60;;
65543;SDS011;52173;45.204;39.240;2023-07-24T19:18:31;16.38;;;9.90;;
65543;SDS011;52173;45.204;39.240;2023-07-24T19:20:58;14.93;;;11.05;;
65543;SDS011;52173;45.204;39.240;2023-07-24T19:23:26;21.65;;;11.65;;
65543;SDS011;52173;45.204;39.240;2023-07-24T19:25:52;16.80;;;10.68;;
